createdAt,value
2022-10-06T00:01:41.098Z,60.10
2022-10-06T00:04:08.218Z,60.31
2022-10-06T00:06:34.849Z,60.22
2022-10-06T00:09:01.615Z,60.08
2022-10-06T00:11:28.623Z,60.76
2022-10-06T00:13:56.378Z,60.17
2022-10-06T00:16:23.575Z,60.63
2022-10-06T00:18:50.847Z,61.01
2022-10-06T00:21:17.855Z,60.36
2022-10-06T00:23:44.627Z,59.73
2022-10-06T00:26:16.890Z,59.28
2022-10-06T00:28:46.133Z,59.16
2022-10-06T00:31:13.403Z,59.30
2022-10-06T00:33:40.246Z,59.29
2022-10-06T00:36:07.575Z,58.83
2022-10-06T00:38:34.780Z,58.54
2022-10-06T00:41:01.510Z,59.08
2022-10-06T00:43:46.619Z,59.46
2022-10-06T00:46:16.099Z,59.14
2022-10-06T00:48:43.055Z,59.13
2022-10-06T00:51:09.891Z,59.41
2022-10-06T00:53:36.877Z,59.84
2022-10-06T00:56:03.668Z,58.90
2022-10-06T00:58:31.865Z,58.74
2022-10-06T01:00:58.992Z,59.77
2022-10-06T01:03:34.237Z,58.80
2022-10-06T01:06:02.202Z,58.90
2022-10-06T01:08:29.468Z,58.62
2022-10-06T01:10:56.479Z,59.07
2022-10-06T01:13:23.503Z,58.50
2022-10-06T01:15:58.585Z,58.64
2022-10-06T01:18:27.146Z,58.52
2022-10-06T01:21:03.619Z,58.90
2022-10-06T01:23:31.291Z,58.83
2022-10-06T01:25:58.595Z,59.29
2022-10-06T01:28:25.371Z,58.71
2022-10-06T01:30:54.406Z,58.96
2022-10-06T01:33:21.826Z,59.19
2022-10-06T01:35:50.290Z,57.32
2022-10-06T01:38:17.545Z,58.35
2022-10-06T01:40:46.234Z,58.09
2022-10-06T01:43:13.030Z,58.11
2022-10-06T01:45:42.269Z,58.91
2022-10-06T01:48:09.316Z,58.50
2022-10-06T01:50:36.460Z,58.47
2022-10-06T01:53:03.482Z,58.10
2022-10-06T01:55:31.288Z,57.89
2022-10-06T01:57:58.983Z,58.62
2022-10-06T02:00:26.113Z,58.67
2022-10-06T02:02:53.614Z,58.50
2022-10-06T02:05:20.472Z,58.02
2022-10-06T02:07:47.575Z,58.00
2022-10-06T02:10:15.263Z,58.38
2022-10-06T02:12:43.385Z,58.30
2022-10-06T02:15:13.221Z,58.41
2022-10-06T02:17:40.343Z,58.32
2022-10-06T02:20:07.302Z,58.26
2022-10-06T02:22:37.601Z,58.21
2022-10-06T02:25:04.549Z,58.04
2022-10-06T02:27:31.308Z,57.68
2022-10-06T02:29:58.799Z,58.23
2022-10-06T02:32:31.965Z,58.06
2022-10-06T02:35:00.298Z,58.75
2022-10-06T02:37:27.144Z,58.60
2022-10-06T02:39:53.937Z,58.63
2022-10-06T02:42:21.172Z,58.04
2022-10-06T02:44:49.343Z,57.79
2022-10-06T02:47:16.751Z,58.62
2022-10-06T02:49:43.949Z,57.84
2022-10-06T02:52:11.192Z,58.30
2022-10-06T02:54:37.948Z,58.12
2022-10-06T02:57:05.063Z,57.56
2022-10-06T02:59:31.833Z,58.36
2022-10-06T03:01:58.742Z,57.60
2022-10-06T03:04:25.865Z,57.77
2022-10-06T03:06:52.688Z,57.72
2022-10-06T03:09:19.596Z,56.83
2022-10-06T03:11:46.549Z,58.02
2022-10-06T03:14:16.605Z,58.15
2022-10-06T03:16:47.494Z,58.69
2022-10-06T03:19:14.571Z,59.18
2022-10-06T03:21:42.311Z,57.96
2022-10-06T03:24:10.502Z,57.80
2022-10-06T03:26:38.462Z,58.49
2022-10-06T03:29:10.481Z,59.30
2022-10-06T03:31:40.078Z,58.92
2022-10-06T03:34:06.935Z,57.99
2022-10-06T03:36:34.016Z,57.65
2022-10-06T03:39:01.640Z,57.10
2022-10-06T03:41:29.423Z,58.43
2022-10-06T03:43:57.018Z,57.95
2022-10-06T03:46:25.081Z,57.32
2022-10-06T03:48:52.457Z,58.11
2022-10-06T03:51:23.578Z,57.75
2022-10-06T03:53:51.639Z,57.45
2022-10-06T03:56:20.683Z,57.58
2022-10-06T03:58:54.492Z,58.12
2022-10-06T04:01:26.210Z,58.63
2022-10-06T04:03:55.325Z,58.16
2022-10-06T04:06:22.394Z,58.25
2022-10-06T04:08:49.788Z,58.54
2022-10-06T04:11:17.962Z,57.91
2022-10-06T04:13:45.277Z,58.55
2022-10-06T04:16:13.339Z,58.29
2022-10-06T04:18:40.786Z,58.08
2022-10-06T04:21:07.814Z,58.48
2022-10-06T04:23:36.518Z,58.06
2022-10-06T04:26:06.366Z,58.35
2022-10-06T04:28:33.639Z,58.08
2022-10-06T04:31:01.008Z,57.66
2022-10-06T04:33:28.378Z,58.02
2022-10-06T04:35:58.684Z,58.53
2022-10-06T04:38:25.732Z,58.33
2022-10-06T04:40:53.543Z,58.04
2022-10-06T04:43:20.441Z,58.21
2022-10-06T04:45:47.228Z,58.59
2022-10-06T04:48:14.381Z,58.39
2022-10-06T04:50:41.071Z,58.63
2022-10-06T04:53:07.877Z,57.74
2022-10-06T04:55:34.850Z,57.94
2022-10-06T04:58:02.228Z,58.33
2022-10-06T05:00:28.977Z,58.31
2022-10-06T05:02:56.296Z,57.69
2022-10-06T05:05:23.211Z,58.40
2022-10-06T05:07:50.301Z,59.35
2022-10-06T05:10:17.468Z,59.37
2022-10-06T05:12:44.526Z,58.06
2022-10-06T05:15:11.360Z,58.71
2022-10-06T05:17:38.371Z,58.92
2022-10-06T05:20:05.444Z,59.21
2022-10-06T05:22:34.407Z,59.25
2022-10-06T05:25:02.015Z,59.07
2022-10-06T05:27:28.786Z,59.71
2022-10-06T05:29:55.628Z,58.70
2022-10-06T05:32:22.609Z,59.80
2022-10-06T05:34:49.256Z,58.83
2022-10-06T05:37:16.001Z,58.56
2022-10-06T05:39:43.397Z,59.80
2022-10-06T05:42:10.101Z,59.55
2022-10-06T05:44:37.260Z,60.73
2022-10-06T05:47:04.814Z,59.05
2022-10-06T05:49:31.748Z,60.02
2022-10-06T05:51:58.592Z,59.93
2022-10-06T05:54:25.801Z,59.98
2022-10-06T05:56:52.890Z,61.14
2022-10-06T05:59:19.590Z,61.07
2022-10-06T06:01:47.213Z,61.39
2022-10-06T06:04:14.832Z,60.68
2022-10-06T06:06:42.815Z,60.81
2022-10-06T06:09:10.936Z,61.40
2022-10-06T06:11:42.082Z,61.32
2022-10-06T06:14:09.668Z,61.28
2022-10-06T06:16:39.059Z,61.56
2022-10-06T06:19:07.024Z,60.87
2022-10-06T06:21:35.735Z,60.86
2022-10-06T06:24:03.036Z,60.82
2022-10-06T06:26:31.729Z,61.05
2022-10-06T06:29:02.665Z,60.99
2022-10-06T06:31:37.586Z,60.72
2022-10-06T06:34:06.785Z,60.61
2022-10-06T06:36:35.981Z,60.51
2022-10-06T06:39:05.585Z,60.36
2022-10-06T06:41:33.736Z,60.47
2022-10-06T06:44:01.222Z,61.13
2022-10-06T06:46:32.014Z,59.78
2022-10-06T06:49:04.646Z,61.02
2022-10-06T06:51:33.254Z,62.08
2022-10-06T06:54:02.382Z,60.76
2022-10-06T06:56:35.081Z,60.47
2022-10-06T06:59:04.029Z,59.57
2022-10-06T07:01:31.374Z,59.86
2022-10-06T07:04:01.122Z,60.75
2022-10-06T07:06:29.811Z,60.45
2022-10-06T07:08:57.897Z,59.01
2022-10-06T07:11:29.683Z,58.57
2022-10-06T07:13:58.505Z,57.07
2022-10-06T07:16:44.346Z,56.77
2022-10-06T07:19:30.420Z,56.53
2022-10-06T07:22:23.070Z,55.64
2022-10-06T07:25:08.208Z,54.45
2022-10-06T07:27:36.333Z,53.65
2022-10-06T07:30:07.361Z,52.82
2022-10-06T07:32:34.251Z,52.30
2022-10-06T07:35:01.106Z,51.54
2022-10-06T07:37:29.115Z,50.43
2022-10-06T07:39:56.826Z,50.32
2022-10-06T07:42:23.947Z,49.58
2022-10-06T07:45:09.802Z,49.33
2022-10-06T07:47:40.874Z,49.44
2022-10-06T07:50:08.627Z,49.08
2022-10-06T07:52:39.313Z,49.64
2022-10-06T07:55:06.971Z,49.34
2022-10-06T07:57:35.339Z,48.53
2022-10-06T08:00:05.545Z,47.80
2022-10-06T08:02:39.941Z,46.95
2022-10-06T08:05:08.281Z,47.97
2022-10-06T08:07:35.284Z,47.05
2022-10-06T08:10:02.020Z,48.19
2022-10-06T08:12:34.896Z,46.96
2022-10-06T08:15:06.940Z,46.29
2022-10-06T08:17:36.750Z,45.62
2022-10-06T08:20:07.371Z,46.31
2022-10-06T08:22:34.496Z,46.86
2022-10-06T08:25:06.161Z,46.39
2022-10-06T08:27:34.953Z,46.13
2022-10-06T08:30:02.234Z,45.53
2022-10-06T08:32:28.959Z,46.39
2022-10-06T08:34:55.997Z,45.67
2022-10-06T08:37:27.372Z,46.23
2022-10-06T08:39:54.466Z,47.18
2022-10-06T08:42:41.420Z,46.11
2022-10-06T08:45:21.844Z,46.54
2022-10-06T08:47:56.493Z,45.17
2022-10-06T08:50:24.356Z,44.16
2022-10-06T08:52:51.166Z,44.86
2022-10-06T08:55:18.374Z,44.04
2022-10-06T08:58:00.637Z,45.17
2022-10-06T09:00:30.132Z,44.36
2022-10-06T09:02:57.603Z,45.31
2022-10-06T09:05:29.831Z,44.78
2022-10-06T09:08:07.595Z,43.38
2022-10-06T09:10:44.798Z,42.92
2022-10-06T09:13:12.680Z,42.56
2022-10-06T09:15:48.217Z,46.18
2022-10-06T09:18:49.850Z,46.55
2022-10-06T09:21:33.182Z,43.83
2022-10-06T09:24:03.835Z,44.98
2022-10-06T09:26:31.405Z,44.18
2022-10-06T09:28:58.196Z,44.49
2022-10-06T09:31:28.778Z,42.52
2022-10-06T09:34:18.820Z,42.76
2022-10-06T09:37:01.937Z,42.30
2022-10-06T09:39:33.196Z,42.05
2022-10-06T09:42:04.264Z,46.20
2022-10-06T09:44:40.655Z,46.18
2022-10-06T09:47:22.508Z,41.60
2022-10-06T09:50:10.080Z,40.56
2022-10-06T09:52:36.783Z,44.12
2022-10-06T09:55:07.147Z,43.84
2022-10-06T09:57:33.931Z,42.62
2022-10-06T10:00:00.733Z,43.75
2022-10-06T10:02:33.693Z,44.95
2022-10-06T10:05:02.483Z,42.82
2022-10-06T10:07:30.108Z,40.53
2022-10-06T10:10:11.216Z,41.89
2022-10-06T10:12:38.351Z,40.87
2022-10-06T10:15:23.587Z,41.48
2022-10-06T10:17:55.464Z,39.69
2022-10-06T10:20:25.143Z,43.19
2022-10-06T10:22:55.815Z,41.52
2022-10-06T10:25:34.571Z,42.46
2022-10-06T10:28:07.041Z,39.60
2022-10-06T10:30:35.728Z,42.85
2022-10-06T10:35:51.471Z,41.52
2022-10-06T10:38:22.065Z,42.45
2022-10-06T10:40:50.519Z,41.61
2022-10-06T10:43:25.649Z,42.21
2022-10-06T10:45:57.233Z,42.27
2022-10-06T10:48:32.513Z,44.40
2022-10-06T10:51:07.819Z,42.19
2022-10-06T10:53:43.780Z,43.29
2022-10-06T10:56:11.946Z,44.07
2022-10-06T10:58:39.123Z,42.91
2022-10-06T11:01:12.033Z,41.86
2022-10-06T11:03:39.022Z,41.54
2022-10-06T11:06:28.046Z,41.10
2022-10-06T11:08:58.630Z,39.64
2022-10-06T11:11:28.020Z,38.66
2022-10-06T11:13:55.010Z,40.31
2022-10-06T11:16:31.930Z,40.39
2022-10-06T11:19:18.508Z,39.38
2022-10-06T11:21:55.215Z,39.47
2022-10-06T11:24:25.045Z,39.72
2022-10-06T11:26:54.526Z,40.78
2022-10-06T11:29:40.604Z,40.86
2022-10-06T11:32:13.125Z,39.25
2022-10-06T11:34:39.780Z,37.37
2022-10-06T11:37:25.491Z,40.87
2022-10-06T11:40:11.520Z,38.65
2022-10-06T11:42:40.758Z,38.68
2022-10-06T11:45:14.883Z,38.46
2022-10-06T11:47:41.656Z,37.84
2022-10-06T11:50:37.942Z,40.08
2022-10-06T11:53:23.004Z,40.66
2022-10-06T11:56:07.703Z,39.76
2022-10-06T11:59:01.062Z,38.82
2022-10-06T12:01:30.844Z,40.52
2022-10-06T12:04:10.049Z,40.79
2022-10-06T12:06:45.760Z,41.47
2022-10-06T12:09:24.817Z,39.12
2022-10-06T12:12:01.337Z,40.14
2022-10-06T12:17:19.333Z,39.75
2022-10-06T12:19:46.995Z,39.83
2022-10-06T12:22:19.695Z,40.04
2022-10-06T12:24:56.436Z,39.33
2022-10-06T12:27:42.004Z,39.51
2022-10-06T12:30:18.831Z,42.53
2022-10-06T12:32:53.383Z,43.05
2022-10-06T12:35:24.854Z,43.14
2022-10-06T12:37:56.519Z,41.11
2022-10-06T12:40:46.705Z,42.28
2022-10-06T12:43:19.858Z,42.90
2022-10-06T12:45:58.100Z,43.20
2022-10-06T12:48:27.851Z,41.87
2022-10-06T12:51:07.103Z,43.00
2022-10-06T12:54:02.958Z,41.42
2022-10-06T12:56:36.760Z,43.05
2022-10-06T12:59:30.258Z,41.90
2022-10-06T13:02:01.109Z,43.33
2022-10-06T13:04:32.553Z,44.53
2022-10-06T13:06:59.557Z,43.31
2022-10-06T13:09:26.931Z,43.58
2022-10-06T13:11:54.809Z,44.02
2022-10-06T13:14:23.290Z,43.84
2022-10-06T13:16:50.077Z,41.96
2022-10-06T13:19:22.769Z,43.63
2022-10-06T13:21:49.829Z,43.59
2022-10-06T13:24:19.761Z,43.07
2022-10-06T13:26:48.681Z,43.74
2022-10-06T13:29:23.025Z,42.53
2022-10-06T13:31:52.923Z,41.66
2022-10-06T13:34:45.055Z,40.98
2022-10-06T13:39:40.717Z,41.64
2022-10-06T13:42:10.939Z,40.98
2022-10-06T13:44:39.178Z,41.06
2022-10-06T13:47:19.402Z,40.98
2022-10-06T13:49:47.132Z,39.93
2022-10-06T13:52:24.236Z,39.98
2022-10-06T13:54:52.409Z,41.10
2022-10-06T13:57:35.026Z,41.10
2022-10-06T14:00:02.853Z,40.97
2022-10-06T14:02:37.016Z,41.36
2022-10-06T14:05:22.973Z,41.45
2022-10-06T14:07:50.043Z,40.22
2022-10-06T14:10:17.066Z,41.92
2022-10-06T14:12:46.935Z,40.78
2022-10-06T14:15:16.566Z,40.36
2022-10-06T14:17:43.598Z,41.67
2022-10-06T14:20:29.249Z,41.67
2022-10-06T14:22:56.179Z,41.14
2022-10-06T14:25:22.890Z,41.14
2022-10-06T14:27:49.652Z,41.49
2022-10-06T14:30:16.928Z,43.07
2022-10-06T14:32:43.599Z,43.20
2022-10-06T14:35:10.981Z,41.97
2022-10-06T14:37:38.046Z,42.98
2022-10-06T14:40:08.850Z,42.72
2022-10-06T14:42:38.704Z,43.24
2022-10-06T14:45:05.617Z,43.21
2022-10-06T14:47:32.271Z,42.98
2022-10-06T14:49:59.290Z,43.04
2022-10-06T14:52:26.059Z,43.13
2022-10-06T14:54:52.720Z,43.59
2022-10-06T14:57:20.966Z,43.02
2022-10-06T14:59:47.719Z,44.86
2022-10-06T15:02:14.542Z,44.80
2022-10-06T15:04:41.486Z,44.16
2022-10-06T15:07:26.989Z,45.22
2022-10-06T15:09:53.969Z,45.63
2022-10-06T15:12:20.744Z,45.12
2022-10-06T15:14:47.387Z,45.60
2022-10-06T15:17:14.351Z,46.07
2022-10-06T15:19:41.146Z,46.17
2022-10-06T15:22:09.007Z,46.33
2022-10-06T15:24:35.966Z,46.44
2022-10-06T15:27:24.692Z,46.67
2022-10-06T15:29:52.139Z,47.37
2022-10-06T15:32:18.799Z,47.45
2022-10-06T15:34:45.471Z,47.75
2022-10-06T15:37:12.455Z,47.76
2022-10-06T15:39:39.136Z,47.77
2022-10-06T15:42:06.645Z,48.05
2022-10-06T15:44:34.742Z,48.22
2022-10-06T15:47:01.815Z,48.39
2022-10-06T15:49:33.083Z,48.21
2022-10-06T15:52:02.723Z,48.17
2022-10-06T15:54:30.782Z,48.38
2022-10-06T15:56:58.084Z,48.25
2022-10-06T15:59:25.717Z,48.52
2022-10-06T16:01:57.551Z,48.64
2022-10-06T16:04:40.399Z,48.82
2022-10-06T16:07:07.675Z,48.63
2022-10-06T16:09:39.336Z,48.55
2022-10-06T16:12:09.291Z,48.59
2022-10-06T16:14:36.258Z,48.47
2022-10-06T16:17:04.216Z,49.50
2022-10-06T16:19:31.398Z,49.02
2022-10-06T16:21:59.245Z,48.97
2022-10-06T16:24:26.300Z,48.99
2022-10-06T16:26:53.234Z,49.36
2022-10-06T16:29:21.044Z,48.96
2022-10-06T16:31:48.565Z,49.05
2022-10-06T16:34:15.514Z,49.36
2022-10-06T16:36:42.663Z,49.25
2022-10-06T16:39:16.282Z,49.40
2022-10-06T16:41:43.399Z,49.73
2022-10-06T16:44:10.339Z,50.42
2022-10-06T16:46:37.079Z,50.38
2022-10-06T16:49:04.087Z,50.44
2022-10-06T16:51:31.779Z,50.57
2022-10-06T16:54:18.762Z,50.65
2022-10-06T16:56:47.471Z,50.81
2022-10-06T16:59:15.797Z,51.10
2022-10-06T17:01:42.641Z,51.00
2022-10-06T17:04:09.747Z,51.21
2022-10-06T17:06:39.248Z,51.27
2022-10-06T17:09:08.230Z,51.48
2022-10-06T17:11:35.801Z,51.40
2022-10-06T17:14:03.035Z,51.79
2022-10-06T17:16:31.211Z,51.98
2022-10-06T17:18:58.351Z,52.00
2022-10-06T17:21:46.114Z,51.70
2022-10-06T17:24:12.126Z,51.32
2022-10-06T17:26:39.798Z,51.70
2022-10-06T17:29:08.002Z,51.43
2022-10-06T17:31:38.979Z,51.46
2022-10-06T17:34:20.414Z,52.16
2022-10-06T17:36:49.045Z,53.21
2022-10-06T17:39:16.834Z,53.38
2022-10-06T17:41:47.190Z,53.05
2022-10-06T17:44:21.359Z,53.04
2022-10-06T17:46:49.033Z,52.85
2022-10-06T17:49:16.399Z,53.49
2022-10-06T17:51:45.413Z,54.27
2022-10-06T17:54:16.164Z,54.71
2022-10-06T17:56:43.517Z,55.05
2022-10-06T17:59:14.541Z,55.55
2022-10-06T18:01:42.110Z,54.97
2022-10-06T18:04:09.112Z,55.32
2022-10-06T18:06:36.138Z,54.75
2022-10-06T18:09:03.467Z,54.78
2022-10-06T18:11:35.830Z,55.10
2022-10-06T18:14:04.304Z,54.88
2022-10-06T18:16:32.510Z,55.15
2022-10-06T18:19:01.654Z,55.78
2022-10-06T18:21:28.921Z,56.78
2022-10-06T18:23:56.886Z,56.73
2022-10-06T18:26:23.844Z,56.61
2022-10-06T18:28:50.673Z,56.38
2022-10-06T18:31:18.474Z,56.58
2022-10-06T18:36:33.673Z,56.93
2022-10-06T18:39:01.307Z,56.33
2022-10-06T18:41:28.645Z,56.14
2022-10-06T18:43:55.720Z,56.33
2022-10-06T18:46:41.194Z,56.63
2022-10-06T18:49:11.413Z,56.34
2022-10-06T18:51:40.115Z,56.65
2022-10-06T18:54:08.565Z,56.99
2022-10-06T18:56:36.346Z,57.00
2022-10-06T18:59:05.232Z,56.95
2022-10-06T19:01:31.976Z,57.02
2022-10-06T19:04:01.448Z,56.62
2022-10-06T19:06:28.840Z,56.96
2022-10-06T19:09:01.144Z,56.94
2022-10-06T19:11:47.852Z,57.35
2022-10-06T19:14:15.969Z,57.52
2022-10-06T19:16:43.454Z,58.01
2022-10-06T19:19:14.664Z,57.67
2022-10-06T19:21:42.630Z,57.37
2022-10-06T19:24:11.591Z,57.28
2022-10-06T19:26:42.484Z,57.81
2022-10-06T19:29:13.806Z,58.13
2022-10-06T19:31:42.575Z,58.04
2022-10-06T19:34:11.759Z,58.69
2022-10-06T19:36:40.735Z,58.58
2022-10-06T19:39:11.903Z,58.91
2022-10-06T19:41:57.961Z,58.44
2022-10-06T19:44:25.142Z,58.06
2022-10-06T19:46:52.193Z,58.25
2022-10-06T19:49:18.956Z,58.92
2022-10-06T19:51:47.785Z,58.49
2022-10-06T19:54:15.183Z,58.01
2022-10-06T19:56:42.075Z,58.21
2022-10-06T19:59:12.152Z,57.94
2022-10-06T20:01:41.469Z,58.21
2022-10-06T20:04:09.120Z,58.35
2022-10-06T20:06:37.304Z,59.16
2022-10-06T20:09:07.620Z,58.99
2022-10-06T20:11:38.440Z,59.07
2022-10-06T20:14:10.624Z,58.27
2022-10-06T20:16:40.141Z,60.71
2022-10-06T20:19:08.151Z,59.30
2022-10-06T20:21:35.495Z,58.85
2022-10-06T20:24:04.103Z,58.80
2022-10-06T20:26:32.174Z,59.08
2022-10-06T20:28:59.730Z,58.46
2022-10-06T20:31:27.994Z,58.37
2022-10-06T20:33:57.861Z,58.59
2022-10-06T20:36:25.004Z,58.47
2022-10-06T20:39:10.494Z,58.52
2022-10-06T20:41:37.379Z,58.48
2022-10-06T20:44:04.708Z,58.94
2022-10-06T20:46:32.260Z,58.46
2022-10-06T20:49:00.640Z,58.66
2022-10-06T20:51:27.879Z,58.40
2022-10-06T20:53:56.976Z,58.27
2022-10-06T20:56:24.613Z,58.55
2022-10-06T20:58:52.075Z,58.31
2022-10-06T21:01:19.555Z,59.04
2022-10-06T21:03:47.392Z,58.44
2022-10-06T21:06:15.365Z,58.98
2022-10-06T21:08:44.126Z,59.11
2022-10-06T21:11:17.242Z,59.29
2022-10-06T21:14:10.601Z,59.07
2022-10-06T21:16:38.533Z,58.57
2022-10-06T21:19:08.246Z,59.14
2022-10-06T21:21:35.805Z,59.22
2022-10-06T21:24:02.986Z,59.30
2022-10-06T21:26:30.159Z,58.69
2022-10-06T21:28:57.099Z,58.71
2022-10-06T21:31:24.900Z,59.72
2022-10-06T21:33:52.630Z,59.52
2022-10-06T21:36:22.620Z,59.53
2022-10-06T21:38:50.552Z,59.20
2022-10-06T21:41:31.843Z,58.72
2022-10-06T21:44:03.108Z,59.10
2022-10-06T21:46:31.581Z,59.52
2022-10-06T21:48:58.960Z,59.10
2022-10-06T21:51:26.513Z,59.30
2022-10-06T21:53:53.848Z,59.11
2022-10-06T21:56:21.476Z,59.18
2022-10-06T21:58:51.540Z,59.79
2022-10-06T22:01:23.553Z,59.60
2022-10-06T22:03:50.996Z,60.82
2022-10-06T22:06:19.582Z,59.81
2022-10-06T22:08:46.749Z,59.88
2022-10-06T22:11:15.863Z,59.30
2022-10-06T22:13:44.433Z,59.33
2022-10-06T22:16:12.224Z,59.17
2022-10-06T22:18:39.685Z,60.30
2022-10-06T22:21:17.151Z,59.65
2022-10-06T22:23:45.129Z,59.23
2022-10-06T22:26:13.308Z,59.64
2022-10-06T22:28:40.400Z,59.90
2022-10-06T22:31:08.445Z,59.98
2022-10-06T22:33:35.806Z,59.64
2022-10-06T22:36:03.072Z,59.49
2022-10-06T22:38:31.066Z,59.11
2022-10-06T22:41:01.284Z,59.84
2022-10-06T22:43:28.390Z,59.72
2022-10-06T22:45:55.647Z,59.67
2022-10-06T22:48:22.935Z,60.21
2022-10-06T22:50:49.974Z,59.12
2022-10-06T22:53:20.979Z,59.89
2022-10-06T22:55:47.954Z,59.90
2022-10-06T22:58:15.194Z,59.43
2022-10-06T23:00:42.692Z,59.64
2022-10-06T23:03:09.702Z,59.10
2022-10-06T23:05:36.982Z,59.08
2022-10-06T23:08:04.811Z,59.28
2022-10-06T23:10:32.768Z,59.21
2022-10-06T23:12:59.736Z,59.16
2022-10-06T23:15:27.126Z,58.53
2022-10-06T23:17:53.994Z,59.62
2022-10-06T23:20:21.126Z,59.31
2022-10-06T23:22:48.298Z,59.44
2022-10-06T23:25:15.200Z,59.79
2022-10-06T23:27:42.245Z,60.24
2022-10-06T23:30:10.271Z,59.60
2022-10-06T23:32:37.657Z,59.68
2022-10-06T23:35:04.771Z,59.40
2022-10-06T23:37:31.947Z,59.26
2022-10-06T23:39:58.874Z,59.19
2022-10-06T23:42:25.776Z,59.17
2022-10-06T23:44:53.599Z,59.96
2022-10-06T23:47:20.564Z,60.24
2022-10-06T23:49:47.461Z,59.77
2022-10-06T23:52:15.079Z,59.54
2022-10-06T23:54:42.038Z,59.33
2022-10-06T23:57:09.494Z,59.46
2022-10-06T23:59:36.650Z,60.04
